Kezdőlap
METAR-TAF:

METAR-TAF

Repülőterek :

Kingston, Ontario, Kanada

földrajzi szélesség: 44-13N, földrajzi hosszúság: 076-36W, magasság: 93 m

Jelenlegi meteorológiai megfigyelések

A jelentés 1 órával és 2 perccel ezelõtt készült, 14:00 UTC
Északnyugati szél 3 kt
Hőmérséklet -16°C
Páratartalom 78%
Légköri nyomás 1033 hPa
Látótávolság: 24.1 km
Szórványos felhőzet 13000 lábon
Szakadozott felhőzet 18000 lábon

METAR: CYGK 211400Z 32003KT 15SM SCT130 BKN180 M16/M19 A3049 RMK AC3AC4 SLP333

Idő: 10:02 (15:02 UTC)

Előrejelzés

A jelentés 2 órával és 22 perccel ezelõtt készült, 12:40 UTC
Az előrejelzés 21-én 13 óra UTC és 22-én 01 óra UTC között érvényes
Észak-északnyugati szél 7 kt
Látótávolság: 10 km
Szórványos felhőzet 16000 lábon
21-én 1800 órától UTC szerint
Nyugat-délnyugati szél 10 kt
Látótávolság: 10 km
Borult 12000 lábon

TAF: CYGK 211240Z 2113/2201 34007KT P6SM SCT160 FM211800 24010KT P6SM OVC120 RMK NXT FCST BY 212000Z

Meteorológiai megfigyelések és előrejelzések több, mint 4000 repülőtéren (METAR és TAF jelentéseket).

A térképen piros és sárga pontok jelzik az elérhető meteorológiai állomásokat.

Mozgassa az egeret a pont fölött, hogy megjelenjen az állomás neve.

Azután kattintson az időjárási megfigyelések és előrejelzések megtekintéséhez.

A térkép megváltoztatása: kattintson a fekete keresztel jelölt zöld gombra ráközelítéshez, a vonallal jelölt zöld gombra távolításhoz, vagy a zöld nyilakra a szomszédos térképek eléréséhez.


METAR-TAF: